Time;durP1;ratioP1;P1;durP2;ratioP2;P2;SDS_P1;SDS_P2;PMS_P1;PMS_P2;Temp;Humidity;BMP_temperature;BMP_pressure;BME280_temperature;BME280_humidity;BME280_pressure;Samples;Min_cycle;Max_cycle;Signal;HPM_P1;HPM_P2
2021/10/03 00:00:04;;;;;;;3.67;2.72;;;16.90;93.60;;;;;;6301936;22;20417;-74
2021/10/03 00:02:30;;;;;;;4.50;3.25;;;16.90;93.60;;;;;;6302364;22;19996;-74
2021/10/03 00:04:57;;;;;;;3.75;3.15;;;16.90;93.60;;;;;;6302987;22;19995;-76
2021/10/03 00:07:24;;;;;;;3.97;2.38;;;16.90;93.60;;;;;;6302659;22;20330;-74
2021/10/03 00:09:51;;;;;;;4.43;2.50;;;17.00;93.50;;;;;;6301975;22;20406;-74
2021/10/03 00:12:18;;;;;;;4.63;2.67;;;17.00;93.50;;;;;;6302080;22;19999;-75
2021/10/03 00:14:44;;;;;;;4.60;3.25;;;16.90;93.30;;;;;;6302477;22;19999;-77
2021/10/03 00:17:09;;;;;;;8.00;3.25;;;16.90;93.40;;;;;;6303323;22;20842;-76
2021/10/03 00:19:37;;;;;;;6.07;2.95;;;16.90;93.50;;;;;;6300907;22;19995;-75
2021/10/03 00:22:03;;;;;;;4.03;2.80;;;16.90;93.30;;;;;;6302241;22;19995;-76
2021/10/03 00:24:30;;;;;;;2.97;2.22;;;16.90;93.20;;;;;;6303522;22;19995;-76
2021/10/03 00:26:57;;;;;;;6.40;2.80;;;16.90;93.10;;;;;;6302558;22;20061;-76
2021/10/03 00:29:23;;;;;;;4.43;2.72;;;16.90;93.10;;;;;;6302033;22;20053;-76
2021/10/03 00:31:49;;;;;;;3.92;2.53;;;16.90;93.10;;;;;;6302604;22;20346;-76
2021/10/03 00:34:15;;;;;;;3.20;2.50;;;16.90;92.70;;;;;;6302480;22;20446;-76
2021/10/03 00:36:40;;;;;;;3.05;2.42;;;16.90;92.70;;;;;;6303814;22;20027;-75
2021/10/03 00:39:06;;;;;;;3.42;2.40;;;17.00;92.60;;;;;;6301769;22;20392;-76
2021/10/03 00:41:32;;;;;;;3.42;2.55;;;17.00;92.60;;;;;;6302121;22;20002;-76
2021/10/03 00:43:57;;;;;;;4.60;3.17;;;17.00;92.50;;;;;;6302709;22;20005;-76
2021/10/03 00:46:23;;;;;;;4.43;1.60;;;17.00;92.60;;;;;;6302290;22;20003;-76
2021/10/03 00:48:48;;;;;;;3.40;2.30;;;17.00;92.30;;;;;;6299307;22;20007;-76
2021/10/03 00:51:14;;;;;;;3.25;2.28;;;17.00;92.10;;;;;;6302175;22;20060;-76
2021/10/03 00:53:39;;;;;;;3.05;2.47;;;17.00;92.00;;;;;;6302411;22;20086;-76
2021/10/03 00:56:07;;;;;;;3.83;2.25;;;17.00;91.80;;;;;;6302143;22;20661;-75
2021/10/03 00:58:33;;;;;;;3.17;2.30;;;17.00;91.90;;;;;;6302005;22;20034;-75
2021/10/03 01:00:58;;;;;;;3.78;2.30;;;17.10;91.60;;;;;;6301194;22;19999;-75
2021/10/03 01:03:24;;;;;;;4.43;2.33;;;17.10;92.00;;;;;;6275476;22;20010;-75
2021/10/03 01:05:49;;;;;;;5.00;2.45;;;17.10;91.60;;;;;;6302042;22;20073;-75
2021/10/03 01:08:15;;;;;;;5.53;2.60;;;17.10;91.50;;;;;;6300908;22;20017;-75
2021/10/03 01:10:40;;;;;;;3.85;2.92;;;17.10;91.50;;;;;;6302578;22;20007;-75
2021/10/03 01:13:11;;;;;;;3.38;2.78;;;17.10;91.50;;;;;;6301487;22;19999;-76
2021/10/03 01:15:43;;;;;;;4.15;2.20;;;17.10;91.40;;;;;;6302516;22;20022;-75
2021/10/03 01:18:10;;;;;;;3.30;2.50;;;17.10;91.30;;;;;;6301216;22;20007;-75
2021/10/03 01:20:37;;;;;;;3.88;3.38;;;17.20;91.60;;;;;;6301902;22;20053;-75
2021/10/03 01:23:03;;;;;;;4.28;3.00;;;17.10;91.20;;;;;;6302023;22;20021;-75
2021/10/03 01:25:34;;;;;;;3.92;2.72;;;17.20;91.30;;;;;;6301763;22;19995;-75
2021/10/03 01:28:01;;;;;;;6.22;3.08;;;17.20;91.30;;;;;;6300283;22;20407;-75
2021/10/03 01:30:27;;;;;;;3.95;3.03;;;17.20;91.20;;;;;;6275493;22;20018;-76
2021/10/03 01:32:52;;;;;;;3.70;2.78;;;17.20;91.20;;;;;;6301780;22;20003;-75
2021/10/03 01:35:19;;;;;;;3.95;2.45;;;17.20;91.20;;;;;;6301969;22;19999;-76
2021/10/03 01:37:45;;;;;;;4.15;3.10;;;17.20;91.10;;;;;;6301778;22;20417;-74
2021/10/03 01:40:12;;;;;;;4.65;2.90;;;17.20;91.00;;;;;;6302113;22;20079;-74
2021/10/03 01:42:39;;;;;;;3.55;2.80;;;17.20;91.00;;;;;;6301400;22;19999;-76
2021/10/03 01:45:07;;;;;;;4.32;3.45;;;17.20;90.50;;;;;;6301999;22;20452;-76
2021/10/03 01:47:33;;;;;;;5.78;3.25;;;17.20;90.50;;;;;;6301313;22;20004;-76
2021/10/03 01:49:59;;;;;;;4.55;3.35;;;17.20;90.70;;;;;;6301899;22;20045;-75
2021/10/03 01:52:25;;;;;;;4.57;3.50;;;17.20;90.70;;;;;;6301950;22;20030;-75
2021/10/03 01:54:50;;;;;;;4.82;3.03;;;17.20;90.60;;;;;;6302144;22;20007;-76
2021/10/03 01:57:16;;;;;;;4.13;3.08;;;17.20;90.80;;;;;;6249944;22;20003;-75
2021/10/03 01:59:41;;;;;;;4.20;2.75;;;17.20;90.90;;;;;;6301237;22;20034;-75
2021/10/03 02:02:07;;;;;;;5.60;3.30;;;17.20;90.80;;;;;;6300832;22;20031;-75
2021/10/03 02:04:33;;;;;;;3.63;3.13;;;17.10;90.60;;;;;;6302625;22;20007;-76
2021/10/03 02:06:59;;;;;;;6.03;3.90;;;17.10;90.80;;;;;;6301257;22;20056;-75
2021/10/03 02:09:27;;;;;;;3.30;2.47;;;17.10;90.90;;;;;;6301419;22;20322;-75
2021/10/03 02:11:56;;;;;;;4.47;3.05;;;17.10;90.70;;;;;;6301602;22;20007;-75
2021/10/03 02:14:30;;;;;;;4.82;3.28;;;17.10;90.80;;;;;;6301194;22;20034;-75
2021/10/03 02:16:57;;;;;;;4.72;3.28;;;17.00;90.70;;;;;;6304005;22;20007;-76
2021/10/03 02:19:24;;;;;;;4.95;3.60;;;17.00;90.80;;;;;;6302193;22;20311;-75
2021/10/03 02:21:50;;;;;;;4.82;3.10;;;17.00;90.80;;;;;;6303480;22;20395;-76
2021/10/03 02:24:16;;;;;;;4.82;2.75;;;17.00;91.00;;;;;;6304620;22;20003;-75
2021/10/03 02:26:42;;;;;;;5.55;3.90;;;17.00;90.70;;;;;;6303652;22;20152;-75
2021/10/03 02:29:08;;;;;;;5.20;3.85;;;16.90;90.70;;;;;;6303446;22;20003;-75
2021/10/03 02:31:34;;;;;;;5.65;3.63;;;16.90;91.00;;;;;;6303797;22;20417;-74
2021/10/03 02:34:00;;;;;;;4.88;3.65;;;16.90;90.90;;;;;;6303422;22;20330;-75
2021/10/03 02:36:26;;;;;;;5.15;3.88;;;16.80;91.10;;;;;;6303722;22;20066;-74
2021/10/03 02:38:53;;;;;;;4.13;3.08;;;16.80;90.80;;;;;;6302935;22;20042;-75
2021/10/03 02:41:20;;;;;;;4.93;3.30;;;16.70;90.90;;;;;;6303473;22;20003;-74
2021/10/03 02:43:48;;;;;;;5.38;3.40;;;16.70;91.00;;;;;;6304573;22;20433;-75
2021/10/03 02:46:15;;;;;;;5.22;3.47;;;16.70;91.10;;;;;;6302179;22;19999;-75
2021/10/03 02:48:48;;;;;;;5.57;3.78;;;16.70;91.10;;;;;;6303337;22;20486;-76
2021/10/03 02:51:13;;;;;;;6.43;3.95;;;16.60;91.10;;;;;;6303260;22;20018;-75
2021/10/03 02:53:38;;;;;;;5.75;3.40;;;16.60;91.10;;;;;;6302336;22;20421;-75
2021/10/03 02:56:04;;;;;;;6.90;3.47;;;16.60;91.30;;;;;;6303647;22;20013;-76
2021/10/03 02:58:29;;;;;;;4.40;3.63;;;16.60;91.00;;;;;;6302374;22;20582;-77
2021/10/03 03:00:55;;;;;;;6.38;3.95;;;16.60;91.40;;;;;;6303050;22;20093;-76
2021/10/03 03:03:21;;;;;;;4.10;3.60;;;16.60;91.20;;;;;;6303724;22;19999;-76
2021/10/03 03:05:48;;;;;;;8.45;4.28;;;16.60;91.30;;;;;;6302828;22;20341;-76
2021/10/03 03:08:13;;;;;;;5.13;4.38;;;16.60;91.20;;;;;;6303173;22;20019;-75
2021/10/03 03:10:39;;;;;;;5.32;4.53;;;16.60;91.20;;;;;;6303721;22;20011;-76
2021/10/03 03:13:04;;;;;;;7.72;4.90;;;16.70;91.20;;;;;;6302447;22;19995;-75
2021/10/03 03:15:30;;;;;;;6.90;5.03;;;16.70;91.20;;;;;;6303544;22;20022;-76
2021/10/03 03:17:56;;;;;;;10.32;4.60;;;16.70;90.90;;;;;;6302521;22;20003;-76
2021/10/03 03:20:21;;;;;;;7.63;5.32;;;16.70;90.90;;;;;;6303390;22;20794;-76
2021/10/03 03:22:47;;;;;;;7.13;4.63;;;16.70;91.00;;;;;;6302481;22;20003;-75
2021/10/03 03:25:13;;;;;;;9.18;4.95;;;16.70;90.90;;;;;;6303384;22;19992;-77
2021/10/03 03:27:40;;;;;;;6.60;4.97;;;16.80;91.10;;;;;;6302745;22;20422;-76
2021/10/03 03:30:07;;;;;;;6.82;4.85;;;16.80;91.00;;;;;;6303668;22;20056;-75
2021/10/03 03:32:33;;;;;;;7.07;5.43;;;16.80;90.90;;;;;;6302046;22;20007;-75
2021/10/03 03:34:58;;;;;;;6.57;5.28;;;16.80;90.80;;;;;;6303160;22;20295;-75
2021/10/03 03:37:24;;;;;;;6.45;4.93;;;16.80;90.90;;;;;;6303594;22;20010;-74
2021/10/03 03:39:50;;;;;;;7.47;5.18;;;16.80;90.90;;;;;;6302296;22;20335;-75
2021/10/03 03:42:16;;;;;;;7.50;5.68;;;16.80;90.80;;;;;;6303165;22;19991;-75
2021/10/03 03:44:41;;;;;;;7.18;4.90;;;16.80;90.80;;;;;;6303353;22;19998;-75
2021/10/03 03:47:07;;;;;;;6.68;5.13;;;16.80;90.90;;;;;;6302381;22;20450;-76
2021/10/03 03:49:32;;;;;;;7.63;6.28;;;16.80;90.90;;;;;;6302904;22;20022;-75
2021/10/03 03:51:58;;;;;;;6.57;5.15;;;16.80;90.80;;;;;;6302582;22;19995;-75
2021/10/03 03:54:23;;;;;;;6.68;4.97;;;16.80;90.80;;;;;;6302921;22;20027;-75
2021/10/03 03:56:49;;;;;;;7.15;4.82;;;16.80;90.70;;;;;;6303493;22;20414;-75
2021/10/03 03:59:15;;;;;;;8.75;5.20;;;16.80;91.00;;;;;;6302107;22;20036;-75
2021/10/03 04:01:41;;;;;;;8.15;5.60;;;16.80;91.10;;;;;;6302968;22;20092;-75
2021/10/03 04:04:06;;;;;;;9.25;6.20;;;16.70;90.90;;;;;;6302792;22;20003;-75
2021/10/03 04:06:32;;;;;;;7.78;5.63;;;16.70;91.00;;;;;;6274942;22;20014;-75
2021/10/03 04:08:57;;;;;;;6.50;5.40;;;16.70;91.30;;;;;;6302271;22;20033;-76
2021/10/03 04:11:23;;;;;;;9.20;5.93;;;16.70;91.40;;;;;;6302201;22;19995;-75
2021/10/03 04:13:48;;;;;;;7.00;5.53;;;16.70;91.40;;;;;;6302938;22;20023;-75
2021/10/03 04:16:14;;;;;;;6.97;5.03;;;16.70;91.20;;;;;;6303142;22;20032;-76
2021/10/03 04:18:40;;;;;;;10.25;5.88;;;16.70;91.10;;;;;;6302000;22;19996;-75
2021/10/03 04:21:05;;;;;;;7.35;5.13;;;16.60;91.40;;;;;;6302581;22;20007;-75
2021/10/03 04:23:31;;;;;;;8.30;6.03;;;16.60;91.40;;;;;;6303115;22;20027;-76
2021/10/03 04:25:56;;;;;;;8.95;6.03;;;16.60;91.40;;;;;;6301833;22;19996;-76
2021/10/03 04:28:24;;;;;;;7.60;5.72;;;16.60;91.50;;;;;;6302076;22;20081;-76
2021/10/03 04:30:50;;;;;;;8.18;6.03;;;16.50;91.50;;;;;;6274712;22;19999;-76
2021/10/03 04:33:15;;;;;;;6.30;5.15;;;16.50;91.50;;;;;;6301753;22;20449;-76
2021/10/03 04:35:42;;;;;;;7.18;5.10;;;16.50;91.60;;;;;;6302934;22;20023;-76
2021/10/03 04:38:07;;;;;;;7.18;5.82;;;16.50;91.70;;;;;;6301295;22;20003;-75
2021/10/03 04:40:33;;;;;;;8.10;5.18;;;16.40;91.80;;;;;;6302518;22;19995;-76
2021/10/03 04:42:58;;;;;;;6.95;5.47;;;16.40;91.40;;;;;;6302443;22;20003;-76
2021/10/03 04:45:24;;;;;;;6.50;5.53;;;16.40;91.70;;;;;;6302120;22;19999;-76
2021/10/03 04:47:50;;;;;;;8.10;6.22;;;16.40;91.80;;;;;;6301180;22;20012;-76
2021/10/03 04:50:15;;;;;;;7.88;5.55;;;16.40;92.10;;;;;;6302702;22;20318;-76
2021/10/03 04:52:41;;;;;;;8.25;5.15;;;16.40;92.00;;;;;;6301693;22;20066;-76
2021/10/03 04:55:09;;;;;;;7.45;5.20;;;16.40;91.90;;;;;;6302478;22;20061;-76
2021/10/03 04:57:35;;;;;;;10.27;5.97;;;16.40;92.10;;;;;;6301586;22;19999;-75
2021/10/03 05:00:00;;;;;;;7.30;5.70;;;16.40;92.00;;;;;;6301462;22;19999;-76
2021/10/03 05:02:26;;;;;;;9.27;5.93;;;16.40;92.00;;;;;;6302217;22;20006;-76
2021/10/03 05:04:51;;;;;;;6.70;5.55;;;16.40;92.20;;;;;;6301357;22;20010;-76
2021/10/03 05:07:17;;;;;;;6.55;5.57;;;16.40;92.20;;;;;;6302327;22;20353;-76
2021/10/03 05:09:42;;;;;;;11.25;5.28;;;16.40;92.00;;;;;;6301577;22;19992;-75
2021/10/03 05:12:08;;;;;;;6.93;5.47;;;16.40;92.10;;;;;;6301136;22;20078;-76
2021/10/03 05:14:34;;;;;;;7.07;5.90;;;16.40;91.80;;;;;;6302461;22;20003;-76
2021/10/03 05:16:59;;;;;;;7.45;5.70;;;16.50;91.90;;;;;;6301841;22;20000;-76
2021/10/03 05:19:25;;;;;;;5.28;4.72;;;16.50;92.10;;;;;;6273077;22;20010;-77
2021/10/03 05:21:50;;;;;;;7.40;6.07;;;16.50;92.00;;;;;;6298401;22;19999;-74
2021/10/03 05:24:16;;;;;;;6.72;5.75;;;16.50;91.90;;;;;;6298370;22;20741;-75
2021/10/03 05:26:42;;;;;;;7.43;6.00;;;16.50;92.00;;;;;;6299720;22;20011;-75
2021/10/03 05:29:08;;;;;;;7.70;5.35;;;16.50;91.90;;;;;;6298945;22;20010;-75
2021/10/03 05:31:33;;;;;;;7.68;5.60;;;16.50;91.90;;;;;;6299202;22;20000;-75
2021/10/03 05:33:59;;;;;;;5.75;4.75;;;16.60;92.00;;;;;;6299462;22;20007;-75
2021/10/03 05:36:25;;;;;;;12.15;6.25;;;16.50;92.00;;;;;;6299942;22;20429;-76
2021/10/03 05:38:51;;;;;;;9.70;6.05;;;16.60;92.10;;;;;;6296031;22;20027;-76
2021/10/03 05:41:16;;;;;;;8.38;5.45;;;16.60;92.10;;;;;;6261456;22;20011;-77
2021/10/03 05:43:42;;;;;;;6.95;5.45;;;16.60;91.90;;;;;;6296776;22;20411;-76
2021/10/03 05:46:08;;;;;;;6.55;4.85;;;16.60;92.10;;;;;;6297919;22;20003;-76
2021/10/03 05:48:34;;;;;;;10.23;6.43;;;16.60;91.80;;;;;;6295783;22;20049;-76
2021/10/03 05:51:01;;;;;;;7.85;5.95;;;16.60;91.80;;;;;;6298023;22;20056;-76
2021/10/03 05:53:27;;;;;;;9.75;5.43;;;16.70;91.60;;;;;;6301951;22;20432;-76
2021/10/03 05:55:53;;;;;;;9.60;4.63;;;16.70;91.40;;;;;;6302041;22;20007;-76
2021/10/03 05:58:19;;;;;;;6.80;4.88;;;16.80;91.30;;;;;;6300388;22;20430;-76
2021/10/03 06:00:44;;;;;;;6.95;4.75;;;16.70;91.50;;;;;;6301634;22;20002;-75
2021/10/03 06:03:10;;;;;;;6.22;5.10;;;16.80;91.50;;;;;;6300909;22;20000;-76
2021/10/03 06:05:35;;;;;;;6.75;4.72;;;16.80;91.50;;;;;;6301137;22;20066;-76
2021/10/03 06:08:01;;;;;;;8.32;5.05;;;16.90;91.60;;;;;;6300545;22;20019;-76
2021/10/03 06:10:27;;;;;;;5.80;5.20;;;16.90;91.80;;;;;;6300913;22;20011;-76
2021/10/03 06:12:52;;;;;;;6.18;4.90;;;16.90;91.60;;;;;;6299863;22;20418;-76
2021/10/03 06:15:18;;;;;;;7.97;5.38;;;16.90;91.50;;;;;;6301596;22;20018;-76
2021/10/03 06:17:44;;;;;;;8.27;5.43;;;17.00;91.60;;;;;;6300934;22;20011;-74
2021/10/03 06:20:11;;;;;;;7.57;5.60;;;17.00;91.30;;;;;;6301510;22;20004;-77
2021/10/03 06:22:40;;;;;;;7.22;5.40;;;17.10;91.40;;;;;;6301925;22;20003;-76
2021/10/03 06:25:06;;;;;;;5.65;4.38;;;17.10;91.10;;;;;;6302288;22;20010;-76
2021/10/03 06:27:31;;;;;;;6.38;5.00;;;17.20;91.00;;;;;;6301504;22;20015;-76
2021/10/03 06:29:57;;;;;;;5.25;4.35;;;17.30;90.90;;;;;;6301982;22;20062;-76
2021/10/03 06:32:23;;;;;;;5.70;4.03;;;17.30;91.00;;;;;;6301051;22;20003;-76
2021/10/03 06:34:49;;;;;;;6.40;5.05;;;17.30;91.00;;;;;;6302090;22;20019;-76
2021/10/03 06:37:15;;;;;;;9.23;5.20;;;17.30;91.50;;;;;;6302049;22;20429;-76
2021/10/03 06:39:40;;;;;;;7.47;4.88;;;17.40;91.20;;;;;;6300109;22;19998;-75
2021/10/03 06:42:06;;;;;;;10.02;5.35;;;17.40;91.10;;;;;;6302412;22;20007;-75
2021/10/03 06:44:31;;;;;;;6.30;4.53;;;17.50;90.90;;;;;;6302138;22;20003;-76
2021/10/03 06:46:57;;;;;;;9.23;5.50;;;17.50;90.80;;;;;;6301821;22;20007;-76
2021/10/03 06:49:23;;;;;;;5.72;4.63;;;17.50;91.00;;;;;;6302065;22;20321;-76
2021/10/03 06:51:48;;;;;;;4.93;3.80;;;17.50;90.90;;;;;;6301888;22;20003;-76
2021/10/03 06:54:14;;;;;;;7.30;5.80;;;17.50;90.80;;;;;;6302235;22;20010;-77
2021/10/03 06:56:39;;;;;;;7.55;4.25;;;17.60;90.50;;;;;;6275067;22;20078;-75
2021/10/03 06:59:05;;;;;;;6.65;4.63;;;17.60;90.30;;;;;;6300416;22;20379;-76
2021/10/03 07:01:31;;;;;;;6.15;4.47;;;17.60;90.60;;;;;;6301650;22;20048;-75
2021/10/03 07:03:56;;;;;;;7.03;4.28;;;17.60;90.70;;;;;;6302249;22;19995;-76
2021/10/03 07:06:22;;;;;;;9.07;4.00;;;17.70;91.00;;;;;;6301896;22;20003;-76
2021/10/03 07:08:47;;;;;;;10.50;4.60;;;17.80;90.70;;;;;;6300654;22;20006;-74
2021/10/03 07:11:13;;;;;;;6.05;4.18;;;17.90;90.90;;;;;;6301738;22;19995;-77
2021/10/03 07:13:38;;;;;;;4.63;4.10;;;18.00;90.50;;;;;;6271651;22;20001;-75
2021/10/03 07:16:04;;;;;;;6.50;4.50;;;18.10;90.50;;;;;;6301205;22;20023;-75
2021/10/03 07:18:30;;;;;;;6.53;4.22;;;18.10;90.30;;;;;;6302100;22;20006;-76
2021/10/03 07:21:03;;;;;;;5.07;4.35;;;18.20;89.40;;;;;;6302103;22;19995;-75
2021/10/03 07:23:30;;;;;;;5.65;4.25;;;18.20;90.10;;;;;;6302699;22;19999;-76
2021/10/03 07:25:56;;;;;;;6.43;4.35;;;18.30;89.40;;;;;;6301654;22;19999;-77
2021/10/03 07:28:23;;;;;;;4.70;4.28;;;18.40;90.30;;;;;;6297688;22;20011;-77
2021/10/03 07:30:49;;;;;;;5.93;4.78;;;18.50;90.10;;;;;;6300538;22;20007;-76
2021/10/03 07:33:17;;;;;;;4.90;4.35;;;18.60;90.00;;;;;;6299482;22;20323;-76
2021/10/03 07:35:42;;;;;;;6.45;4.25;;;18.60;88.80;;;;;;6300437;22;20009;-77
2021/10/03 07:38:08;;;;;;;4.57;3.85;;;18.80;89.20;;;;;;6298723;22;20007;-77
2021/10/03 07:40:33;;;;;;;4.95;4.10;;;18.80;87.80;;;;;;6298741;22;19995;-76
2021/10/03 07:42:59;;;;;;;6.13;4.10;;;18.90;88.70;;;;;;6300802;22;20314;-76
2021/10/03 07:45:24;;;;;;;5.10;4.25;;;18.90;88.70;;;;;;6303712;22;20003;-76
2021/10/03 07:47:50;;;;;;;5.75;4.13;;;19.00;89.20;;;;;;6299646;22;20039;-77
2021/10/03 07:50:15;;;;;;;5.22;3.80;;;19.00;88.00;;;;;;6299910;22;20106;-76
2021/10/03 07:52:41;;;;;;;5.45;3.88;;;19.00;88.80;;;;;;6300034;22;20467;-76
2021/10/03 07:55:07;;;;;;;4.72;4.22;;;19.00;88.30;;;;;;6300372;22;20175;-77
2021/10/03 07:57:32;;;;;;;4.63;4.15;;;19.10;89.00;;;;;;6299450;22;20431;-77
2021/10/03 07:59:58;;;;;;;4.43;3.60;;;19.10;88.30;;;;;;6299876;22;20004;-76
2021/10/03 08:02:23;;;;;;;4.57;3.85;;;19.20;89.20;;;;;;6299239;22;20251;-77
2021/10/03 08:04:49;;;;;;;4.82;4.28;;;19.20;88.60;;;;;;6299348;22;19991;-77
2021/10/03 08:07:14;;;;;;;5.47;4.18;;;19.20;88.40;;;;;;6297905;22;20057;-77
2021/10/03 08:09:40;;;;;;;4.55;3.88;;;19.30;88.10;;;;;;6298245;22;19999;-77
2021/10/03 08:12:06;;;;;;;4.20;3.67;;;19.30;88.20;;;;;;6300367;22;20467;-76
2021/10/03 08:14:31;;;;;;;3.95;3.45;;;19.40;89.80;;;;;;6302561;22;19995;-76
2021/10/03 08:16:57;;;;;;;4.90;3.53;;;19.50;88.10;;;;;;6302958;22;20087;-76
2021/10/03 08:19:22;;;;;;;5.78;4.30;;;19.50;88.60;;;;;;6298607;22;20326;-76
2021/10/03 08:21:47;;;;;;;5.20;3.65;;;19.60;88.20;;;;;;6299428;22;20007;-76
2021/10/03 08:24:13;;;;;;;4.25;3.70;;;19.70;88.50;;;;;;6299376;22;20449;-77
2021/10/03 08:26:38;;;;;;;4.95;3.97;;;19.80;88.40;;;;;;6299306;22;20081;-78
2021/10/03 08:29:04;;;;;;;5.32;3.65;;;19.90;89.10;;;;;;6297675;22;20098;-77
2021/10/03 08:31:30;;;;;;;4.50;3.45;;;20.00;87.90;;;;;;6299753;22;20026;-76
2021/10/03 08:33:55;;;;;;;4.88;3.50;;;20.00;86.10;;;;;;6298893;22;20074;-77
2021/10/03 08:36:21;;;;;;;4.88;4.15;;;20.10;86.20;;;;;;6300424;22;19999;-75
2021/10/03 08:38:47;;;;;;;6.00;4.05;;;20.20;86.20;;;;;;6270499;22;20006;-75
2021/10/03 08:41:12;;;;;;;4.70;3.80;;;20.20;87.30;;;;;;6272603;22;20007;-76
2021/10/03 08:43:38;;;;;;;6.15;3.60;;;20.30;86.30;;;;;;6301889;22;20007;-76
2021/10/03 08:46:05;;;;;;;4.43;3.65;;;20.30;87.00;;;;;;6302029;22;19991;-76
2021/10/03 08:48:32;;;;;;;4.65;4.03;;;20.40;87.30;;;;;;6299632;22;20011;-76
2021/10/03 08:50:58;;;;;;;7.13;3.50;;;20.50;88.40;;;;;;6298644;22;20010;-76
2021/10/03 08:53:24;;;;;;;9.70;4.03;;;20.50;87.40;;;;;;6298554;22;20303;-75
2021/10/03 08:55:51;;;;;;;4.60;3.35;;;20.60;86.40;;;;;;6300168;22;19995;-77
2021/10/03 08:58:16;;;;;;;4.25;3.55;;;20.70;85.50;;;;;;6296966;22;20322;-76
2021/10/03 09:00:47;;;;;;;4.70;3.63;;;20.70;85.40;;;;;;6298458;22;20000;-78
2021/10/03 09:03:14;;;;;;;3.80;3.13;;;20.70;85.60;;;;;;6298557;22;20048;-75
2021/10/03 09:05:51;;;;;;;4.53;3.47;;;20.80;86.90;;;;;;6298210;22;20019;-76
2021/10/03 09:08:35;;;;;;;3.95;2.85;;;20.90;86.00;;;;;;6296802;22;20059;-76
2021/10/03 09:11:07;;;;;;;4.22;3.38;;;20.90;86.70;;;;;;6298661;22;20440;-75
2021/10/03 09:13:33;;;;;;;4.88;3.58;;;21.00;85.70;;;;;;6301357;22;20025;-76
2021/10/03 09:16:08;;;;;;;3.92;3.28;;;21.10;86.20;;;;;;6302501;22;20436;-74
2021/10/03 09:18:49;;;;;;;4.70;3.53;;;21.20;86.70;;;;;;6301587;22;20057;-75
2021/10/03 09:21:30;;;;;;;6.38;3.63;;;21.30;86.90;;;;;;6301565;22;20026;-76
2021/10/03 09:24:06;;;;;;;4.78;3.42;;;21.50;86.40;;;;;;6302584;22;20039;-76
2021/10/03 09:26:33;;;;;;;4.35;3.22;;;21.50;84.90;;;;;;6300361;22;20520;-76
2021/10/03 09:29:17;;;;;;;4.25;3.40;;;21.60;86.20;;;;;;6301207;22;20041;-76
2021/10/03 09:32:03;;;;;;;3.60;3.05;;;21.70;86.50;;;;;;6301247;22;20056;-76
2021/10/03 09:34:31;;;;;;;4.72;3.42;;;21.80;86.10;;;;;;6301658;22;20002;-76
2021/10/03 09:36:58;;;;;;;2.90;2.60;;;21.90;85.80;;;;;;6302202;22;20060;-76
2021/10/03 09:39:23;;;;;;;5.35;3.00;;;22.00;85.10;;;;;;6300319;22;19999;-76
2021/10/03 09:41:49;;;;;;;3.97;3.22;;;22.10;85.00;;;;;;6301428;22;19999;-76
2021/10/03 09:44:16;;;;;;;3.28;2.90;;;22.20;84.30;;;;;;6302024;22;19999;-76
2021/10/03 09:46:47;;;;;;;2.88;2.30;;;22.40;83.00;;;;;;6300877;22;20145;-76
2021/10/03 09:49:15;;;;;;;3.72;2.78;;;22.50;83.50;;;;;;6300483;22;20347;-76
2021/10/03 09:51:43;;;;;;;3.63;2.72;;;22.70;82.60;;;;;;6301786;22;20317;-76
2021/10/03 09:54:09;;;;;;;3.55;3.25;;;22.80;83.30;;;;;;6301381;22;20003;-77
2021/10/03 09:56:36;;;;;;;3.80;2.72;;;22.90;82.50;;;;;;6302458;22;19995;-76
2021/10/03 09:59:03;;;;;;;4.05;2.70;;;22.90;82.80;;;;;;6301027;22;19999;-76
2021/10/03 10:01:31;;;;;;;3.78;2.60;;;23.00;83.70;;;;;;6300840;22;19996;-76
2021/10/03 10:03:57;;;;;;;3.67;2.55;;;23.10;82.00;;;;;;6301920;22;20003;-76
2021/10/03 10:06:22;;;;;;;3.28;2.60;;;23.20;82.80;;;;;;6300903;22;20508;-76
2021/10/03 10:08:53;;;;;;;4.63;2.50;;;23.30;82.30;;;;;;6299647;22;20371;-76
2021/10/03 10:11:57;;;;;;;3.28;2.42;;;23.50;81.50;;;;;;6301331;22;19999;-77
2021/10/03 10:14:32;;;;;;;3.95;2.83;;;23.60;79.40;;;;;;6241870;22;20453;-77
2021/10/03 10:17:00;;;;;;;3.05;2.50;;;23.60;80.20;;;;;;6301831;22;20014;-77
2021/10/03 10:19:27;;;;;;;3.65;2.65;;;23.80;81.00;;;;;;6299369;22;19995;-77
2021/10/03 10:22:11;;;;;;;3.53;2.30;;;23.90;79.50;;;;;;6300510;22;20421;-77
2021/10/03 10:24:57;;;;;;;3.42;2.60;;;24.10;79.00;;;;;;6301427;22;20025;-76
2021/10/03 10:27:29;;;;;;;4.63;3.10;;;24.20;78.70;;;;;;6300821;22;20043;-78
2021/10/03 10:29:58;;;;;;;2.40;2.10;;;24.30;76.20;;;;;;6301873;22;19999;-77
2021/10/03 10:32:25;;;;;;;5.82;2.47;;;24.30;77.30;;;;;;6301369;22;20426;-77
2021/10/03 10:35:08;;;;;;;3.75;2.15;;;24.50;76.00;;;;;;6301103;22;20413;-77
2021/10/03 10:38:00;;;;;;;3.05;2.30;;;24.60;73.90;;;;;;6302687;22;20003;-77
2021/10/03 10:40:28;;;;;;;3.03;2.37;;;24.70;75.80;;;;;;6244358;22;19999;-77
2021/10/03 10:43:02;;;;;;;3.33;2.33;;;24.70;73.90;;;;;;6302457;22;19996;-77
2021/10/03 10:45:28;;;;;;;4.15;1.95;;;24.70;74.00;;;;;;6304108;22;20619;-78
2021/10/03 10:48:08;;;;;;;2.80;2.10;;;24.80;73.40;;;;;;6301301;22;20004;-79
2021/10/03 10:50:54;;;;;;;4.18;2.25;;;24.90;70.90;;;;;;6303669;22;19999;-78
2021/10/03 10:53:31;;;;;;;4.10;2.17;;;24.90;71.80;;;;;;6275880;22;20035;-79
2021/10/03 10:56:00;;;;;;;2.60;2.30;;;24.90;72.00;;;;;;6302959;22;20030;-78
2021/10/03 10:58:26;;;;;;;2.92;2.05;;;25.00;71.30;;;;;;6301441;22;20031;-78
2021/10/03 11:00:56;;;;;;;2.47;2.15;;;25.10;71.80;;;;;;6302656;22;20315;-78
2021/10/03 11:03:41;;;;;;;2.10;1.90;;;25.20;70.50;;;;;;6303359;22;20003;-78
2021/10/03 11:06:19;;;;;;;3.42;2.35;;;25.20;72.20;;;;;;6301561;22;19995;-78
2021/10/03 11:08:59;;;;;;;3.10;2.42;;;25.30;72.20;;;;;;6301155;22;20003;-78
2021/10/03 11:11:36;;;;;;;3.53;2.08;;;25.40;71.80;;;;;;6301329;22;20015;-77
2021/10/03 11:14:18;;;;;;;2.38;1.98;;;25.50;70.20;;;;;;6275789;22;20008;-77
2021/10/03 11:16:46;;;;;;;2.35;2.15;;;25.50;68.50;;;;;;6301641;22;20129;-77
2021/10/03 11:19:31;;;;;;;3.05;2.30;;;25.50;70.00;;;;;;6301654;22;20046;-77
2021/10/03 11:22:13;;;;;;;2.85;2.05;;;25.50;70.20;;;;;;6302044;22;20002;-77
2021/10/03 11:24:41;;;;;;;3.22;1.90;;;25.50;67.50;;;;;;6302414;22;19995;-77
2021/10/03 11:27:10;;;;;;;2.40;1.90;;;25.50;68.90;;;;;;6303178;22;20341;-76
2021/10/03 11:29:43;;;;;;;2.58;1.75;;;25.50;67.40;;;;;;6300935;22;20322;-79
2021/10/03 11:32:17;;;;;;;2.70;2.03;;;25.40;68.00;;;;;;6275595;22;20322;-77
2021/10/03 11:34:52;;;;;;;3.70;2.15;;;25.50;68.00;;;;;;6302854;22;19995;-79
2021/10/03 11:37:39;;;;;;;2.78;2.17;;;25.50;67.70;;;;;;6301341;22;20011;-78
2021/10/03 11:40:22;;;;;;;2.42;2.15;;;25.50;68.00;;;;;;6301946;22;19999;-78
2021/10/03 11:42:53;;;;;;;3.10;1.70;;;25.50;67.20;;;;;;6301753;22;20023;-78
2021/10/03 11:45:24;;;;;;;3.75;2.67;;;25.40;66.00;;;;;;6275891;22;20010;-78
2021/10/03 11:47:58;;;;;;;5.78;1.92;;;25.40;67.60;;;;;;6301956;22;20034;-78
2021/10/03 11:50:27;;;;;;;3.83;1.75;;;25.40;64.40;;;;;;6302927;22;20008;-78
2021/10/03 11:53:09;;;;;;;3.08;2.10;;;25.20;64.70;;;;;;6301812;22;20011;-78
2021/10/03 11:55:36;;;;;;;;;;;25.20;67.20;;;;;;6303757;22;20082;-78
2021/10/03 11:58:05;;;;;;;3.55;2.20;;;25.20;66.40;;;;;;6301868;22;19970;-78
2021/10/03 12:00:31;;;;;;;4.32;2.70;;;25.10;66.90;;;;;;6302449;22;20421;-78
2021/10/03 12:03:04;;;;;;;2.38;2.13;;;25.10;66.10;;;;;;6301211;22;19999;-78
2021/10/03 12:05:32;;;;;;;2.65;1.83;;;25.10;67.60;;;;;;6302983;22;20338;-78
2021/10/03 12:08:08;;;;;;;3.20;2.10;;;25.10;67.70;;;;;;6301388;22;20011;-78
2021/10/03 12:10:49;;;;;;;3.65;2.22;;;25.10;66.60;;;;;;6302201;22;20069;-78
2021/10/03 12:13:20;;;;;;;2.17;1.80;;;25.20;67.30;;;;;;6274724;22;20000;-78
2021/10/03 12:16:01;;;;;;;4.03;2.10;;;25.20;67.50;;;;;;6303525;22;20002;-78
2021/10/03 12:18:30;;;;;;;2.83;1.73;;;25.20;67.70;;;;;;6301131;22;20007;-78
2021/10/03 12:21:01;;;;;;;3.20;2.00;;;25.10;67.00;;;;;;6302076;22;19999;-78
2021/10/03 12:23:58;;;;;;;3.20;2.37;;;25.10;66.30;;;;;;6302291;22;20055;-78
2021/10/03 12:26:33;;;;;;;9.63;3.45;;;25.10;68.50;;;;;;6300647;22;20080;-78
2021/10/03 12:29:04;;;;;;;3.33;2.05;;;25.20;68.10;;;;;;6301783;22;20448;-78
2021/10/03 12:31:40;;;;;;;2.85;1.92;;;25.10;67.00;;;;;;6301147;22;20655;-78
2021/10/03 12:34:15;;;;;;;2.60;2.10;;;25.10;66.60;;;;;;6301384;22;20560;-78
2021/10/03 12:36:42;;;;;;;2.72;2.15;;;25.10;67.60;;;;;;6302501;22;20128;-79
2021/10/03 12:39:08;;;;;;;3.85;2.35;;;25.10;68.30;;;;;;6300592;22;20438;-78
2021/10/03 12:41:34;;;;;;;4.43;1.95;;;25.20;67.30;;;;;;6302354;22;20003;-78
2021/10/03 12:44:00;;;;;;;2.70;2.30;;;25.20;68.70;;;;;;6302726;22;20000;-78
2021/10/03 12:46:27;;;;;;;3.05;2.22;;;25.30;68.70;;;;;;6301676;22;20002;-78
2021/10/03 12:48:53;;;;;;;2.53;1.92;;;25.30;67.50;;;;;;6301698;22;20102;-77
2021/10/03 12:51:20;;;;;;;3.17;2.13;;;25.30;66.80;;;;;;6301617;22;20422;-78